createdAt,value
2018-11-23T00:00:11.597Z,0.63
2018-11-23T00:02:38.432Z,0.91
2018-11-23T00:05:05.264Z,0.92
2018-11-23T00:07:32.111Z,0.45
2018-11-23T00:09:58.944Z,0.79
2018-11-23T00:12:25.787Z,0.58
2018-11-23T00:14:52.643Z,0.79
2018-11-23T00:17:19.491Z,0.47
2018-11-23T00:19:46.335Z,0.70
2018-11-23T00:22:13.167Z,0.74
2018-11-23T00:24:40.049Z,0.35
2018-11-23T00:27:06.882Z,0.62
2018-11-23T00:29:33.767Z,0.71
2018-11-23T00:32:00.619Z,0.43
2018-11-23T00:34:27.471Z,0.78
2018-11-23T00:36:54.325Z,0.36
2018-11-23T00:39:21.343Z,0.57
2018-11-23T00:41:48.198Z,0.82
2018-11-23T00:44:15.039Z,0.44
2018-11-23T00:46:41.872Z,0.99
2018-11-23T00:49:08.791Z,0.50
2018-11-23T00:51:35.631Z,0.71
2018-11-23T00:54:02.475Z,0.25
2018-11-23T00:56:29.308Z,0.35
2018-11-23T00:58:56.184Z,0.33
2018-11-23T01:01:23.036Z,0.11
2018-11-23T01:03:49.887Z,0.30
2018-11-23T01:06:16.735Z,-0.06
2018-11-23T01:08:43.579Z,0.12
2018-11-23T01:11:10.404Z,0.21
2018-11-23T01:13:37.254Z,-0.01
2018-11-23T01:16:04.079Z,0.12
2018-11-23T01:18:30.919Z,0.14
2018-11-23T01:20:57.763Z,-0.19
2018-11-23T01:23:24.607Z,0.10
2018-11-23T01:25:51.563Z,0.40
2018-11-23T01:28:18.418Z,0.64
2018-11-23T01:30:45.254Z,0.14
2018-11-23T01:33:12.105Z,0.39
2018-11-23T01:35:38.931Z,0.57
2018-11-23T01:38:05.772Z,0.20
2018-11-23T01:40:32.603Z,0.47
2018-11-23T01:42:59.499Z,0.55
2018-11-23T01:45:26.352Z,0.06
2018-11-23T01:47:53.188Z,0.45
2018-11-23T01:50:21.437Z,0.50
2018-11-23T01:52:49.051Z,0.45
2018-11-23T01:55:16.723Z,-0.05
2018-11-23T01:57:43.859Z,0.10
2018-11-23T02:00:13.160Z,0.02
2018-11-23T02:02:40.008Z,-0.23
2018-11-23T02:05:07.366Z,-0.19
2018-11-23T02:07:34.227Z,-0.19
2018-11-23T02:10:01.072Z,-0.41
2018-11-23T02:12:27.923Z,-0.20
2018-11-23T02:14:54.803Z,-0.06
2018-11-23T02:17:23.120Z,-0.27
2018-11-23T02:19:51.080Z,0.13
2018-11-23T02:22:17.927Z,0.20
2018-11-23T02:24:44.767Z,-0.20
2018-11-23T02:27:11.618Z,-0.07
2018-11-23T02:29:38.464Z,0.20
2018-11-23T02:32:05.315Z,-0.12
2018-11-23T02:34:32.153Z,-0.07
2018-11-23T02:36:58.988Z,0.03
2018-11-23T02:39:25.840Z,-0.13
2018-11-23T02:41:52.680Z,-0.01
2018-11-23T02:44:19.532Z,0.10
2018-11-23T02:46:46.480Z,-0.34
2018-11-23T02:49:13.309Z,-0.30
2018-11-23T02:51:40.191Z,-0.46
2018-11-23T02:54:07.060Z,-0.36
2018-11-23T02:56:44.024Z,-0.26
2018-11-23T02:59:10.880Z,-0.64
2018-11-23T03:01:37.955Z,-0.53
2018-11-23T03:04:05.497Z,-0.31
2018-11-23T03:06:32.339Z,-0.50
2018-11-23T03:08:59.179Z,-0.42
2018-11-23T03:11:26.024Z,-0.48
2018-11-23T03:13:52.868Z,-0.54
2018-11-23T03:16:19.758Z,-0.55
2018-11-23T03:18:46.588Z,-0.47
2018-11-23T03:21:13.423Z,-0.48
2018-11-23T03:23:40.263Z,-0.38
2018-11-23T03:26:07.107Z,-0.41
2018-11-23T03:28:33.957Z,-0.48
2018-11-23T03:31:00.876Z,-0.32
2018-11-23T03:33:27.679Z,-0.14
2018-11-23T03:35:54.515Z,-0.03
2018-11-23T03:38:21.363Z,-0.26
2018-11-23T03:40:48.202Z,-0.15
2018-11-23T03:43:15.033Z,0.10
2018-11-23T03:45:41.881Z,0.04
2018-11-23T03:48:08.719Z,0.35
2018-11-23T03:50:35.567Z,0.48
2018-11-23T03:53:02.402Z,0.57
2018-11-23T03:55:29.251Z,0.36
2018-11-23T03:57:56.081Z,0.47
2018-11-23T04:00:23.384Z,0.49
2018-11-23T04:02:50.603Z,0.36
2018-11-23T04:05:17.724Z,0.52
2018-11-23T04:07:44.704Z,0.79
2018-11-23T04:10:12.696Z,0.57
2018-11-23T04:12:39.543Z,0.61
2018-11-23T04:15:06.757Z,0.74
2018-11-23T04:17:33.608Z,0.45
2018-11-23T04:20:00.432Z,0.86
2018-11-23T04:22:27.271Z,0.85
2018-11-23T04:24:54.124Z,0.27
2018-11-23T04:27:20.958Z,0.40
2018-11-23T04:29:47.799Z,0.39
2018-11-23T04:32:14.648Z,0.00
2018-11-23T04:34:41.475Z,0.07
2018-11-23T04:37:08.324Z,0.05
2018-11-23T04:39:35.220Z,-0.04
2018-11-23T04:42:02.091Z,-0.20
2018-11-23T04:44:28.927Z,0.07
2018-11-23T04:46:55.775Z,0.22
2018-11-23T04:49:22.630Z,-0.07
2018-11-23T04:51:49.468Z,0.20
2018-11-23T04:54:16.303Z,-0.09
2018-11-23T04:56:43.143Z,-0.34
2018-11-23T04:59:09.978Z,-0.11
2018-11-23T05:01:36.825Z,0.01
2018-11-23T05:04:03.827Z,-0.37
2018-11-23T05:06:30.693Z,-0.37
2018-11-23T05:08:57.537Z,-0.36
2018-11-23T05:11:24.383Z,-0.43
2018-11-23T05:13:51.384Z,-0.31
2018-11-23T05:16:18.305Z,-0.34
2018-11-23T05:18:45.748Z,-0.47
2018-11-23T05:21:12.620Z,-0.37
2018-11-23T05:23:39.455Z,-0.27
2018-11-23T05:26:06.324Z,-0.16
2018-11-23T05:28:33.159Z,-0.35
2018-11-23T05:31:00.058Z,-0.42
2018-11-23T05:33:26.900Z,-0.44
2018-11-23T05:35:53.751Z,-0.54
2018-11-23T05:38:20.584Z,-0.43
2018-11-23T05:40:47.423Z,-0.45
2018-11-23T05:43:14.254Z,-0.63
2018-11-23T05:45:41.088Z,-0.47
2018-11-23T05:48:07.913Z,-0.42
2018-11-23T05:50:34.748Z,-0.49
2018-11-23T05:53:01.592Z,-0.37
2018-11-23T05:55:28.459Z,-0.26
2018-11-23T05:57:55.403Z,-0.58
2018-11-23T06:00:24.515Z,-0.25
2018-11-23T06:02:51.463Z,-0.19
2018-11-23T06:05:18.314Z,-0.52
2018-11-23T06:07:45.156Z,-0.32
2018-11-23T06:10:14.155Z,-0.29
2018-11-23T06:12:41.159Z,-0.44
2018-11-23T06:15:10.087Z,-0.37
2018-11-23T06:17:36.915Z,-0.24
2018-11-23T06:20:05.031Z,-0.45
2018-11-23T06:22:32.002Z,-0.34
2018-11-23T06:24:58.823Z,-0.39
2018-11-23T06:27:25.659Z,-0.70
2018-11-23T06:29:52.487Z,-0.69
2018-11-23T06:32:30.940Z,-0.62
2018-11-23T06:34:57.783Z,-0.64
2018-11-23T06:37:24.612Z,-0.53
2018-11-23T06:39:51.696Z,-0.67
2018-11-23T06:42:18.536Z,-0.80
2018-11-23T06:44:45.362Z,-0.81
2018-11-23T06:47:12.191Z,-0.78
2018-11-23T06:49:39.031Z,-0.93
2018-11-23T06:52:05.859Z,-0.90
2018-11-23T06:54:32.697Z,-0.67
2018-11-23T06:56:59.535Z,-0.90
2018-11-23T06:59:26.358Z,-0.96
2018-11-23T07:01:53.411Z,-0.64
2018-11-23T07:04:20.268Z,-0.77
2018-11-23T07:06:47.175Z,-0.48
2018-11-23T07:09:13.990Z,-0.42
2018-11-23T07:11:40.848Z,-0.38
2018-11-23T07:14:07.691Z,-0.60
2018-11-23T07:16:34.529Z,-0.43
2018-11-23T07:19:01.379Z,-0.36
2018-11-23T07:21:28.233Z,-0.51
2018-11-23T07:23:55.075Z,-0.33
2018-11-23T07:26:21.922Z,-0.38
2018-11-23T07:28:48.759Z,-0.43
2018-11-23T07:31:15.583Z,-0.29
2018-11-23T07:33:42.420Z,-0.33
2018-11-23T07:36:09.248Z,-0.24
2018-11-23T07:38:36.076Z,-0.08
2018-11-23T07:41:14.696Z,-0.19
2018-11-23T07:43:41.560Z,-0.07
2018-11-23T07:46:08.468Z,-0.08
2018-11-23T07:48:35.307Z,-0.27
2018-11-23T07:51:02.143Z,-0.12
2018-11-23T07:53:28.975Z,-0.13
2018-11-23T07:55:55.831Z,-0.11
2018-11-23T07:58:22.687Z,0.18
2018-11-23T08:00:49.551Z,0.46
2018-11-23T08:03:16.395Z,0.54
2018-11-23T08:05:43.230Z,0.39
2018-11-23T08:08:10.064Z,0.54
2018-11-23T08:10:36.488Z,0.84
2018-11-23T08:13:03.343Z,0.59
2018-11-23T08:15:30.180Z,0.76
2018-11-23T08:17:57.019Z,0.91
2018-11-23T08:20:24.628Z,0.69
2018-11-23T08:22:51.512Z,0.97
2018-11-23T08:25:19.640Z,0.96
2018-11-23T08:27:47.255Z,1.22
2018-11-23T08:30:17.415Z,1.48
2018-11-23T08:32:44.355Z,1.23
2018-11-23T08:35:11.302Z,1.52
2018-11-23T08:37:38.471Z,1.61
2018-11-23T08:40:10.371Z,1.72
2018-11-23T08:42:37.212Z,1.57
2018-11-23T08:45:06.300Z,1.64
2018-11-23T08:47:33.131Z,1.76
2018-11-23T08:49:59.991Z,1.76
2018-11-23T08:52:26.835Z,1.97
2018-11-23T08:54:53.669Z,2.03
2018-11-23T08:57:20.527Z,1.98
2018-11-23T08:59:47.362Z,2.27
2018-11-23T09:02:14.199Z,2.24
2018-11-23T09:04:41.020Z,2.32
2018-11-23T09:07:07.868Z,2.28
2018-11-23T09:09:34.721Z,2.40
2018-11-23T09:12:01.544Z,2.29
2018-11-23T09:14:28.421Z,2.34
2018-11-23T09:16:55.268Z,2.37
2018-11-23T09:19:22.112Z,2.32
2018-11-23T09:21:48.941Z,2.46
2018-11-23T09:24:15.803Z,2.38
2018-11-23T09:26:42.639Z,2.67
2018-11-23T09:29:09.483Z,2.82
2018-11-23T09:31:36.315Z,2.99
2018-11-23T09:34:03.168Z,3.01
2018-11-23T09:36:29.987Z,3.16
2018-11-23T09:38:56.827Z,3.25
2018-11-23T09:41:23.655Z,3.08
2018-11-23T09:43:50.499Z,3.36
2018-11-23T09:46:17.362Z,3.32
2018-11-23T09:48:44.175Z,3.46
2018-11-23T09:51:11.056Z,3.41
2018-11-23T09:53:37.891Z,3.38
2018-11-23T09:56:04.739Z,3.23
2018-11-23T09:58:31.560Z,3.49
2018-11-23T10:00:58.392Z,3.34
2018-11-23T10:03:25.252Z,3.43
2018-11-23T10:05:52.083Z,3.44
2018-11-23T10:08:18.929Z,3.45
2018-11-23T10:10:45.771Z,3.64
2018-11-23T10:13:12.607Z,3.51
2018-11-23T10:15:39.500Z,3.89
2018-11-23T10:18:06.364Z,4.18
2018-11-23T10:20:33.934Z,4.06
2018-11-23T10:23:00.784Z,4.04
2018-11-23T10:25:29.768Z,4.10
2018-11-23T10:27:56.761Z,4.09
2018-11-23T10:30:24.907Z,4.03
2018-11-23T10:32:52.927Z,4.13
2018-11-23T10:35:19.737Z,4.23
2018-11-23T10:37:47.847Z,4.25
2018-11-23T10:40:18.088Z,4.51
2018-11-23T10:42:45.157Z,4.24
2018-11-23T10:45:14.844Z,4.66
2018-11-23T10:47:41.701Z,4.60
2018-11-23T10:50:11.188Z,4.33
2018-11-23T10:52:38.120Z,4.55
2018-11-23T10:55:07.039Z,4.71
2018-11-23T10:57:33.971Z,4.59
2018-11-23T11:00:00.807Z,4.49
2018-11-23T11:02:33.310Z,4.62
2018-11-23T11:05:05.852Z,4.93
2018-11-23T11:07:32.760Z,4.92
2018-11-23T11:09:59.595Z,4.94
2018-11-23T11:12:26.970Z,4.89
2018-11-23T11:14:53.815Z,4.88
2018-11-23T11:17:37.755Z,5.18
2018-11-23T11:20:17.585Z,5.24
2018-11-23T11:23:15.055Z,5.52
2018-11-23T11:25:41.982Z,5.71
2018-11-23T11:28:08.899Z,5.81
2018-11-23T11:30:35.750Z,5.74
2018-11-23T11:33:02.615Z,5.62
2018-11-23T11:35:29.460Z,5.49
2018-11-23T11:37:56.359Z,5.71
2018-11-23T11:40:23.199Z,5.69
2018-11-23T11:42:50.179Z,5.54
2018-11-23T11:45:18.117Z,5.60
2018-11-23T11:47:45.474Z,5.54
2018-11-23T11:50:12.940Z,5.58
2018-11-23T11:52:40.952Z,5.81
2018-11-23T11:55:09.883Z,5.86
2018-11-23T11:57:36.822Z,6.07
2018-11-23T12:00:03.943Z,6.09
2018-11-23T12:02:30.791Z,6.15
2018-11-23T12:04:57.658Z,5.88
2018-11-23T12:07:24.486Z,5.98
2018-11-23T12:09:51.397Z,6.14
2018-11-23T12:12:18.379Z,6.20
2018-11-23T12:14:45.287Z,6.19
2018-11-23T12:17:12.187Z,6.15
2018-11-23T12:19:39.030Z,6.11
2018-11-23T12:22:05.879Z,6.24
2018-11-23T12:24:32.716Z,6.29
2018-11-23T12:26:59.660Z,6.48
2018-11-23T12:29:26.503Z,6.35
2018-11-23T12:31:53.444Z,6.43
2018-11-23T12:34:20.320Z,6.47
2018-11-23T12:36:47.187Z,6.47
2018-11-23T12:39:14.025Z,6.50
2018-11-23T12:41:40.911Z,6.47
2018-11-23T12:44:07.807Z,6.42
2018-11-23T12:46:34.631Z,6.40
2018-11-23T12:49:01.491Z,6.40
2018-11-23T12:51:28.336Z,6.41
2018-11-23T12:53:55.183Z,6.49
2018-11-23T12:56:22.043Z,6.64
2018-11-23T12:58:48.955Z,6.68
2018-11-23T13:01:15.794Z,6.82
2018-11-23T13:03:42.639Z,6.63
2018-11-23T13:06:09.566Z,6.65
2018-11-23T13:08:36.377Z,6.68
2018-11-23T13:11:03.231Z,6.62
2018-11-23T13:13:30.087Z,6.80
2018-11-23T13:15:56.939Z,6.85
2018-11-23T13:18:23.807Z,6.87
2018-11-23T13:20:50.664Z,6.85
2018-11-23T13:23:17.527Z,6.94
2018-11-23T13:25:44.378Z,6.97
2018-11-23T13:28:11.227Z,6.94
2018-11-23T13:30:38.051Z,6.95
2018-11-23T13:33:04.965Z,6.77
2018-11-23T13:35:31.809Z,6.64
2018-11-23T13:37:58.656Z,6.57
2018-11-23T13:40:26.462Z,6.59
2018-11-23T13:42:54.231Z,6.57
2018-11-23T13:45:22.363Z,6.54
2018-11-23T13:47:49.204Z,6.53
2018-11-23T13:50:18.451Z,6.49
2018-11-23T13:52:46.147Z,6.48
2018-11-23T13:55:13.034Z,6.42
2018-11-23T13:57:39.872Z,6.39
2018-11-23T14:00:13.908Z,6.47
2018-11-23T14:02:40.743Z,6.59
2018-11-23T14:05:09.835Z,6.64
2018-11-23T14:07:36.676Z,6.54
2018-11-23T14:10:05.210Z,6.48
2018-11-23T14:12:32.106Z,6.44
2018-11-23T14:14:58.944Z,6.45
2018-11-23T14:17:25.793Z,6.42
2018-11-23T14:19:52.647Z,6.42
2018-11-23T14:22:19.487Z,6.28
2018-11-23T14:24:46.331Z,6.17
2018-11-23T14:27:13.179Z,6.13
2018-11-23T14:29:40.024Z,6.14
2018-11-23T14:32:06.874Z,6.01
2018-11-23T14:34:33.711Z,5.76
2018-11-23T14:37:00.559Z,5.68
2018-11-23T14:39:27.399Z,5.55
2018-11-23T14:41:54.238Z,5.44
2018-11-23T14:44:21.080Z,5.38
2018-11-23T14:46:47.945Z,5.30
2018-11-23T14:49:14.852Z,5.32
2018-11-23T14:51:41.739Z,5.30
2018-11-23T14:54:08.579Z,5.22
2018-11-23T14:56:35.427Z,5.08
2018-11-23T14:59:02.327Z,5.06
2018-11-23T15:01:29.155Z,5.00
2018-11-23T15:03:55.995Z,4.88
2018-11-23T15:06:22.823Z,4.79
2018-11-23T15:08:49.669Z,4.79
2018-11-23T15:11:16.581Z,4.68
2018-11-23T15:13:43.427Z,4.72
2018-11-23T15:16:10.263Z,4.74
2018-11-23T15:18:37.111Z,4.80
2018-11-23T15:21:04.360Z,4.61
2018-11-23T15:23:31.259Z,4.56
2018-11-23T15:25:58.092Z,4.40
2018-11-23T15:28:24.927Z,4.27
2018-11-23T15:30:51.776Z,4.21
2018-11-23T15:33:18.599Z,4.15
2018-11-23T15:35:45.607Z,4.13
2018-11-23T15:38:14.136Z,4.09
2018-11-23T15:40:41.024Z,3.92
2018-11-23T15:43:09.370Z,3.84
2018-11-23T15:45:36.519Z,3.74
2018-11-23T15:48:03.563Z,3.68
2018-11-23T15:50:31.851Z,3.64
2018-11-23T15:52:58.679Z,3.55
2018-11-23T15:55:27.222Z,3.53
2018-11-23T15:57:55.367Z,3.51
2018-11-23T16:00:25.822Z,3.36
2018-11-23T16:02:53.027Z,3.44
2018-11-23T16:05:19.977Z,3.41
2018-11-23T16:07:47.055Z,3.26
2018-11-23T16:10:19.563Z,3.33
2018-11-23T16:13:06.826Z,3.27
2018-11-23T16:15:31.011Z,3.18
2018-11-23T16:17:58.547Z,3.18
2018-11-23T16:20:27.742Z,3.15
2018-11-23T16:22:56.023Z,3.10
2018-11-23T16:25:22.963Z,3.09
2018-11-23T16:27:51.303Z,3.04
2018-11-23T16:30:20.954Z,3.01
2018-11-23T16:32:49.031Z,3.14
2018-11-23T16:35:18.482Z,3.05
2018-11-23T16:37:45.496Z,3.00
2018-11-23T16:40:13.773Z,3.07
2018-11-23T16:42:40.690Z,2.92
2018-11-23T16:45:16.923Z,2.89
2018-11-23T16:47:44.207Z,2.90
2018-11-23T16:50:11.486Z,2.89
2018-11-23T16:52:38.731Z,2.92
2018-11-23T16:55:07.783Z,2.80
2018-11-23T16:57:34.011Z,2.79
2018-11-23T17:00:00.912Z,2.73
2018-11-23T17:02:27.754Z,2.81
2018-11-23T17:04:54.589Z,2.80
2018-11-23T17:07:21.969Z,2.85
2018-11-23T17:09:48.904Z,2.84
2018-11-23T17:12:15.857Z,2.84
2018-11-23T17:14:42.735Z,2.82
2018-11-23T17:17:09.588Z,2.83
2018-11-23T17:19:36.420Z,2.82
2018-11-23T17:22:03.436Z,2.78
2018-11-23T17:24:30.265Z,2.82
2018-11-23T17:26:57.199Z,2.89
2018-11-23T17:29:24.019Z,2.83
2018-11-23T17:31:50.844Z,2.86
2018-11-23T17:34:17.671Z,2.88
2018-11-23T17:36:44.524Z,2.83
2018-11-23T17:39:11.532Z,2.90
2018-11-23T17:41:38.419Z,2.78
2018-11-23T17:44:05.395Z,2.84
2018-11-23T17:46:32.255Z,2.86
2018-11-23T17:48:59.123Z,2.89
2018-11-23T17:51:25.983Z,2.95
2018-11-23T17:53:52.824Z,3.04
2018-11-23T17:56:19.745Z,3.01
2018-11-23T17:58:46.703Z,2.96
2018-11-23T18:01:13.557Z,3.04
2018-11-23T18:03:40.439Z,3.13
2018-11-23T18:06:07.319Z,3.02
2018-11-23T18:08:38.623Z,2.98
2018-11-23T18:11:01.100Z,2.98
2018-11-23T18:13:27.984Z,2.99
2018-11-23T18:15:54.883Z,3.01
2018-11-23T18:18:21.725Z,2.98
2018-11-23T18:20:48.592Z,2.91
2018-11-23T18:23:15.475Z,2.97
2018-11-23T18:25:42.359Z,2.94
2018-11-23T18:28:09.235Z,3.03
2018-11-23T18:30:36.091Z,3.08
2018-11-23T18:33:04.525Z,2.95
2018-11-23T18:35:31.415Z,3.04
2018-11-23T18:37:58.384Z,3.17
2018-11-23T18:40:25.239Z,3.27
2018-11-23T18:42:52.480Z,3.35
2018-11-23T18:45:19.368Z,3.25
2018-11-23T18:47:46.221Z,3.27
2018-11-23T18:50:14.188Z,3.20
2018-11-23T18:52:41.099Z,3.25
2018-11-23T18:55:09.011Z,3.26
2018-11-23T18:57:35.889Z,3.28
2018-11-23T19:00:02.792Z,3.33
2018-11-23T19:02:29.731Z,3.37
2018-11-23T19:04:56.571Z,3.31
2018-11-23T19:07:23.501Z,3.38
2018-11-23T19:09:50.323Z,3.29
2018-11-23T19:12:17.176Z,3.26
2018-11-23T19:14:44.012Z,3.24
2018-11-23T19:17:10.884Z,3.28
2018-11-23T19:19:37.796Z,3.28
2018-11-23T19:22:04.907Z,3.32
2018-11-23T19:24:31.787Z,3.34
2018-11-23T19:26:58.624Z,3.30
2018-11-23T19:29:25.507Z,3.30
2018-11-23T19:31:52.427Z,3.36
2018-11-23T19:34:19.290Z,3.36
2018-11-23T19:36:46.203Z,3.38
2018-11-23T19:39:13.067Z,3.44
2018-11-23T19:41:40.015Z,3.44
2018-11-23T19:44:06.928Z,3.53
2018-11-23T19:46:33.884Z,3.61
2018-11-23T19:49:00.711Z,3.55
2018-11-23T19:51:27.652Z,3.61
2018-11-23T19:53:54.559Z,3.62
2018-11-23T19:56:21.404Z,3.64
2018-11-23T19:58:48.302Z,3.67
2018-11-23T20:01:15.139Z,3.63
2018-11-23T20:03:42.003Z,3.65
2018-11-23T20:06:08.911Z,3.67
2018-11-23T20:08:36.299Z,3.69
2018-11-23T20:11:03.149Z,3.71
2018-11-23T20:13:30.009Z,3.77
2018-11-23T20:15:56.893Z,3.87
2018-11-23T20:18:23.764Z,3.84
2018-11-23T20:20:50.728Z,3.85
2018-11-23T20:23:17.732Z,3.83
2018-11-23T20:25:44.676Z,3.91
2018-11-23T20:28:11.625Z,3.83
2018-11-23T20:30:42.590Z,3.94
2018-11-23T20:33:05.483Z,3.91
2018-11-23T20:35:32.331Z,3.84
2018-11-23T20:37:59.295Z,3.85
2018-11-23T20:40:26.275Z,3.89
2018-11-23T20:42:53.156Z,3.93
2018-11-23T20:45:20.046Z,3.94
2018-11-23T20:47:46.876Z,3.93
2018-11-23T20:50:14.599Z,3.92
2018-11-23T20:52:41.456Z,3.91
2018-11-23T20:55:12.170Z,3.91
2018-11-23T20:57:39.000Z,3.95
2018-11-23T21:00:11.251Z,3.94
2018-11-23T21:02:38.161Z,3.78
2018-11-23T21:05:06.767Z,3.43
2018-11-23T21:07:33.617Z,3.14
2018-11-23T21:10:00.529Z,3.15
2018-11-23T21:12:27.484Z,2.97
2018-11-23T21:14:54.363Z,2.86
2018-11-23T21:17:21.244Z,2.74
2018-11-23T21:19:48.092Z,2.77
2018-11-23T21:22:14.915Z,2.80
2018-11-23T21:24:41.771Z,2.73
2018-11-23T21:27:08.609Z,2.77
2018-11-23T21:29:35.468Z,2.76
2018-11-23T21:32:02.291Z,2.79
2018-11-23T21:34:29.144Z,2.65
2018-11-23T21:36:55.976Z,2.73
2018-11-23T21:39:22.835Z,2.59
2018-11-23T21:41:49.671Z,2.65
2018-11-23T21:44:16.520Z,2.67
2018-11-23T21:46:43.396Z,2.56
2018-11-23T21:49:10.244Z,2.59
2018-11-23T21:51:37.083Z,2.60
2018-11-23T21:54:03.912Z,2.76
2018-11-23T21:56:30.759Z,2.71
2018-11-23T21:58:57.595Z,2.64
2018-11-23T22:01:24.465Z,2.54
2018-11-23T22:03:51.300Z,2.60
2018-11-23T22:06:18.136Z,2.64
2018-11-23T22:08:44.979Z,2.53
2018-11-23T22:11:11.824Z,2.55
2018-11-23T22:13:38.719Z,2.60
2018-11-23T22:16:05.611Z,2.57
2018-11-23T22:18:32.451Z,2.53
2018-11-23T22:20:59.300Z,2.52
2018-11-23T22:23:26.135Z,2.54
2018-11-23T22:25:52.980Z,2.42
2018-11-23T22:28:19.818Z,2.53
2018-11-23T22:30:46.667Z,2.42
2018-11-23T22:33:13.512Z,2.57
2018-11-23T22:35:40.355Z,2.59
2018-11-23T22:38:07.199Z,2.53
2018-11-23T22:40:34.032Z,2.68
2018-11-23T22:43:00.891Z,2.52
2018-11-23T22:45:27.719Z,2.60
2018-11-23T22:47:54.559Z,2.70
2018-11-23T22:50:22.214Z,2.70
2018-11-23T22:52:49.095Z,2.63
2018-11-23T22:55:16.749Z,2.80
2018-11-23T22:57:43.593Z,2.72
2018-11-23T23:00:18.539Z,2.91
2018-11-23T23:02:45.427Z,2.87
2018-11-23T23:05:12.288Z,2.77
2018-11-23T23:07:39.128Z,2.81
2018-11-23T23:10:06.335Z,2.74
2018-11-23T23:12:33.181Z,2.74
2018-11-23T23:15:00.065Z,2.65
2018-11-23T23:17:26.907Z,2.64
2018-11-23T23:19:53.755Z,2.67
2018-11-23T23:22:20.583Z,2.88
2018-11-23T23:24:47.436Z,2.85
2018-11-23T23:27:14.314Z,2.80
2018-11-23T23:29:41.155Z,2.94
2018-11-23T23:32:08.004Z,2.85
2018-11-23T23:34:34.827Z,2.94
2018-11-23T23:37:01.660Z,2.98
2018-11-23T23:39:28.516Z,2.91
2018-11-23T23:41:55.355Z,2.96
2018-11-23T23:44:22.200Z,2.86
2018-11-23T23:46:49.051Z,2.99
2018-11-23T23:49:15.891Z,2.91
2018-11-23T23:51:42.724Z,3.07
2018-11-23T23:54:09.567Z,2.86
2018-11-23T23:56:36.391Z,2.94
2018-11-23T23:59:03.280Z,2.93
